Terminal Aerodrome Forecast
Issued by NWS Sioux Falls, SD

Home | Current Version | Previous Version | Text Only | Print | Product List | Glossary Off
Versions: 1 2 3 4 5 6 7 8 9 10 11 12 13 14 15

000
FTUS43 KFSD 250459 AAF
TAFFSD
TAF AMD
KFSD 250459Z 2505/2524 01014G20KT 3SM -RA BR OVC008
      TEMPO 2505/2508 1SM -SN
     FM250800 36018G25KT 5SM -SN OVC009
     FM251200 36015G22KT P6SM OVC015
     FM251600 35014KT P6SM BKN030
     FM252200 31005KT P6SM SCT040 BKN250=

USA.gov is the U.S. government's official web portal to all federal, state and local government web resources and services.